createdAt,value
2019-04-07T00:02:29.169Z,5.00
2019-04-07T00:05:11.901Z,4.90
2019-04-07T00:10:35.585Z,4.80
2019-04-07T00:13:15.270Z,4.80
2019-04-07T00:15:55.698Z,4.80
2019-04-07T00:18:35.741Z,4.80
2019-04-07T00:21:15.627Z,4.80
2019-04-07T00:23:55.570Z,4.80
2019-04-07T00:26:36.017Z,4.80
2019-04-07T00:29:15.600Z,4.80
2019-04-07T00:31:55.761Z,4.80
2019-04-07T00:34:35.884Z,4.80
2019-04-07T00:37:15.719Z,4.70
2019-04-07T00:39:55.438Z,4.60
2019-04-07T00:42:35.411Z,4.50
2019-04-07T00:45:16.342Z,4.50
2019-04-07T00:47:56.805Z,4.40
2019-04-07T00:50:36.482Z,4.40
2019-04-07T00:53:16.576Z,4.30
2019-04-07T00:55:57.686Z,4.30
2019-04-07T00:58:37.921Z,4.20
2019-04-07T01:01:18.576Z,4.20
2019-04-07T01:03:58.422Z,4.00
2019-04-07T01:06:38.571Z,4.00
2019-04-07T01:09:18.765Z,4.00
2019-04-07T01:11:59.512Z,4.00
2019-04-07T01:14:39.083Z,4.10
2019-04-07T01:17:19.180Z,4.10
2019-04-07T01:19:59.711Z,4.10
2019-04-07T01:22:39.765Z,4.10
2019-04-07T01:25:19.298Z,4.10
2019-04-07T01:27:59.327Z,4.10
2019-04-07T01:30:39.187Z,4.20
2019-04-07T01:33:19.564Z,4.20
2019-04-07T01:35:59.836Z,3.90
2019-04-07T01:38:39.464Z,3.80
2019-04-07T01:44:36.031Z,3.80
2019-04-07T01:47:21.057Z,3.90
2019-04-07T01:50:22.111Z,3.90
2019-04-07T01:53:21.327Z,3.90
2019-04-07T01:56:09.984Z,3.90
2019-04-07T01:59:11.247Z,3.80
2019-04-07T02:02:07.130Z,3.70
2019-04-07T02:04:58.190Z,3.70
2019-04-07T02:07:45.902Z,3.60
2019-04-07T02:10:45.069Z,3.60
2019-04-07T02:13:44.161Z,3.70
2019-04-07T02:16:46.469Z,3.70
2019-04-07T02:19:39.528Z,3.80
2019-04-07T02:22:39.802Z,3.70
2019-04-07T02:25:41.596Z,3.80
2019-04-07T02:28:40.825Z,3.80
2019-04-07T02:31:42.266Z,3.70
2019-04-07T02:34:28.011Z,3.70
2019-04-07T02:37:27.893Z,3.60
2019-04-07T02:40:34.197Z,3.60
2019-04-07T02:43:24.544Z,3.70
2019-04-07T02:46:26.917Z,3.80
2019-04-07T02:49:20.407Z,3.70
2019-04-07T02:52:20.168Z,3.80
2019-04-07T02:55:20.514Z,3.70
2019-04-07T02:58:07.708Z,3.70
2019-04-07T03:01:09.598Z,3.70
2019-04-07T03:04:05.432Z,3.80
2019-04-07T03:07:04.972Z,3.80
2019-04-07T03:09:50.517Z,3.70
2019-04-07T03:12:50.000Z,3.70
2019-04-07T03:15:34.807Z,3.70
2019-04-07T03:21:38.319Z,3.80
2019-04-07T03:24:37.765Z,4.00
2019-04-07T03:27:38.480Z,4.10
2019-04-07T03:30:40.013Z,4.30
2019-04-07T03:33:37.959Z,4.30
2019-04-07T03:36:25.737Z,4.30
2019-04-07T03:39:15.429Z,4.20
2019-04-07T03:42:06.231Z,4.30
2019-04-07T03:47:56.029Z,4.20
2019-04-07T03:50:43.019Z,4.10
2019-04-07T03:53:41.052Z,4.00
2019-04-07T03:56:42.028Z,4.00
2019-04-07T04:02:44.594Z,4.10
2019-04-07T04:05:36.294Z,4.20
2019-04-07T04:08:41.750Z,4.10
2019-04-07T04:11:42.626Z,4.00
2019-04-07T04:14:34.711Z,4.00
2019-04-07T04:17:16.452Z,4.10
2019-04-07T04:19:55.945Z,4.20
2019-04-07T04:22:36.009Z,4.40
2019-04-07T04:25:16.955Z,4.50
2019-04-07T04:27:57.037Z,4.50
2019-04-07T04:30:34.824Z,4.50
2019-04-07T04:33:21.395Z,4.40
2019-04-07T04:36:02.570Z,4.30
2019-04-07T04:38:42.513Z,4.20
2019-04-07T04:41:21.814Z,4.10
2019-04-07T04:44:02.232Z,4.10
2019-04-07T04:46:42.677Z,4.10
2019-04-07T04:49:23.273Z,4.10
2019-04-07T04:52:03.520Z,4.10
2019-04-07T04:54:43.401Z,4.20
2019-04-07T04:57:23.670Z,4.40
2019-04-07T05:00:03.950Z,4.40
2019-04-07T05:02:44.517Z,4.50
2019-04-07T05:05:24.452Z,4.70
2019-04-07T05:08:05.495Z,5.10
2019-04-07T05:10:45.698Z,5.70
2019-04-07T05:13:26.012Z,5.80
2019-04-07T05:16:05.699Z,6.30
2019-04-07T05:18:46.508Z,6.40
2019-04-07T05:21:25.052Z,6.80
2019-04-07T05:24:04.739Z,6.80
2019-04-07T05:26:44.611Z,6.70
2019-04-07T05:29:24.758Z,6.60
2019-04-07T05:32:04.769Z,6.70
2019-04-07T05:34:45.552Z,6.90
2019-04-07T05:37:25.335Z,7.20
2019-04-07T05:40:05.779Z,7.30
2019-04-07T05:42:46.584Z,7.40
2019-04-07T05:45:26.058Z,7.30
2019-04-07T05:48:06.449Z,7.50
2019-04-07T05:50:46.140Z,7.70
2019-04-07T05:53:26.604Z,8.20
2019-04-07T05:56:06.174Z,8.20
2019-04-07T05:58:46.219Z,8.00
2019-04-07T06:01:26.759Z,8.10
2019-04-07T06:04:06.682Z,7.90
2019-04-07T06:06:51.221Z,8.00
2019-04-07T06:09:29.539Z,8.10
2019-04-07T06:12:09.926Z,8.20
2019-04-07T06:14:50.882Z,8.20
2019-04-07T06:17:31.418Z,8.10
2019-04-07T06:20:14.113Z,8.30
2019-04-07T06:22:53.604Z,8.70
2019-04-07T06:25:38.136Z,8.70
2019-04-07T06:28:18.102Z,8.70
2019-04-07T06:30:59.431Z,8.90
2019-04-07T06:33:39.230Z,8.90
2019-04-07T06:36:20.268Z,8.90
2019-04-07T06:39:00.303Z,8.80
2019-04-07T06:41:40.238Z,9.00
2019-04-07T06:44:22.436Z,9.40
2019-04-07T06:47:30.793Z,9.60
2019-04-07T06:50:31.175Z,9.90
2019-04-07T06:53:19.647Z,10.00
2019-04-07T06:56:20.752Z,10.20
2019-04-07T06:59:19.956Z,10.60
2019-04-07T07:02:13.231Z,10.90
2019-04-07T07:05:14.408Z,11.00
2019-04-07T07:08:13.735Z,11.30
2019-04-07T07:11:03.060Z,11.20
2019-04-07T07:14:04.199Z,11.30
2019-04-07T07:16:51.503Z,11.20
2019-04-07T07:19:56.648Z,11.30
2019-04-07T07:22:45.968Z,11.70
2019-04-07T07:25:24.180Z,11.80
2019-04-07T07:28:04.476Z,11.70
2019-04-07T07:30:45.306Z,11.80
2019-04-07T07:33:25.355Z,12.20
2019-04-07T07:36:05.460Z,12.50
2019-04-07T07:38:57.490Z,12.40
2019-04-07T07:41:28.089Z,12.70
2019-04-07T07:44:09.500Z,12.90
2019-04-07T07:46:50.585Z,13.40
2019-04-07T07:49:34.749Z,13.50
2019-04-07T07:52:17.117Z,13.10
2019-04-07T07:54:55.258Z,13.30
2019-04-07T07:57:35.555Z,13.30
2019-04-07T08:00:15.641Z,13.50
2019-04-07T08:02:55.783Z,13.60
2019-04-07T08:05:35.219Z,13.70
2019-04-07T08:08:16.377Z,13.80
2019-04-07T08:11:00.385Z,14.20
2019-04-07T08:13:43.416Z,14.30
2019-04-07T08:16:20.685Z,14.40
2019-04-07T08:19:01.493Z,14.30
2019-04-07T08:21:43.363Z,14.40
2019-04-07T08:24:23.012Z,14.60
2019-04-07T08:27:05.217Z,14.40
2019-04-07T08:29:48.716Z,14.30
2019-04-07T08:32:31.833Z,14.80
2019-04-07T08:35:11.104Z,14.70
2019-04-07T08:37:51.095Z,14.70
2019-04-07T08:40:31.495Z,14.30
2019-04-07T08:43:11.488Z,14.30
2019-04-07T08:45:51.503Z,14.30
2019-04-07T08:48:32.207Z,14.10
2019-04-07T08:51:16.224Z,14.20
2019-04-07T08:53:55.971Z,14.20
2019-04-07T08:56:35.569Z,14.40
2019-04-07T08:59:17.030Z,14.50
2019-04-07T09:01:56.975Z,14.60
2019-04-07T09:04:37.007Z,14.70
2019-04-07T09:07:17.538Z,14.80
2019-04-07T09:09:57.813Z,14.70
2019-04-07T09:12:37.233Z,14.80
2019-04-07T09:18:29.423Z,14.80
2019-04-07T09:24:31.409Z,14.60
2019-04-07T09:30:42.260Z,14.50
2019-04-07T09:33:40.188Z,14.40
2019-04-07T09:36:32.611Z,14.60
2019-04-07T09:39:22.471Z,14.60
2019-04-07T09:42:29.164Z,14.70
2019-04-07T09:48:33.477Z,14.80
2019-04-07T09:51:28.151Z,14.80
2019-04-07T09:54:21.413Z,14.70
2019-04-07T09:57:19.044Z,15.00
2019-04-07T10:00:25.159Z,15.20
2019-04-07T10:03:25.155Z,15.20
2019-04-07T10:06:12.652Z,15.10
2019-04-07T10:12:15.931Z,14.90
2019-04-07T10:15:22.334Z,15.10
2019-04-07T10:18:19.184Z,15.30
2019-04-07T10:21:09.998Z,15.40
2019-04-07T10:24:01.724Z,15.60
2019-04-07T10:26:56.293Z,15.80
2019-04-07T10:29:52.460Z,15.70
2019-04-07T10:32:56.250Z,15.90
2019-04-07T10:35:58.704Z,16.00
2019-04-07T10:38:55.309Z,16.10
2019-04-07T10:41:55.777Z,16.30
2019-04-07T10:44:55.642Z,16.30
2019-04-07T10:47:41.583Z,16.40
2019-04-07T10:50:33.675Z,16.80
2019-04-07T10:53:17.080Z,17.00
2019-04-07T10:56:19.938Z,17.20
2019-04-07T10:59:23.240Z,17.30
2019-04-07T11:05:24.540Z,16.90
2019-04-07T11:08:18.465Z,16.80
2019-04-07T11:11:19.164Z,16.70
2019-04-07T11:17:08.088Z,16.70
2019-04-07T11:19:58.169Z,16.90
2019-04-07T11:22:41.395Z,17.20
2019-04-07T11:25:32.209Z,17.30
2019-04-07T11:28:22.582Z,17.30
2019-04-07T11:31:23.743Z,17.00
2019-04-07T11:34:23.737Z,17.10
2019-04-07T11:37:24.528Z,17.20
2019-04-07T11:40:11.709Z,17.40
2019-04-07T11:43:15.307Z,17.70
2019-04-07T11:46:03.059Z,17.80
2019-04-07T11:49:02.387Z,18.20
2019-04-07T11:51:47.863Z,18.20
2019-04-07T11:54:33.924Z,17.90
2019-04-07T11:57:29.055Z,18.20
2019-04-07T12:03:17.179Z,18.20
2019-04-07T12:09:02.216Z,17.90
2019-04-07T12:11:58.232Z,17.90
2019-04-07T12:14:59.145Z,18.00
2019-04-07T12:17:49.191Z,18.10
2019-04-07T12:20:53.446Z,18.20
2019-04-07T12:23:54.241Z,18.60
2019-04-07T12:26:53.828Z,18.40
2019-04-07T12:30:00.135Z,18.40
2019-04-07T12:33:08.455Z,18.20
2019-04-07T12:36:11.795Z,18.00
2019-04-07T12:42:07.164Z,18.30
2019-04-07T12:45:14.444Z,18.60
2019-04-07T12:47:59.382Z,18.30
2019-04-07T12:50:48.890Z,18.20
2019-04-07T12:53:50.105Z,18.30
2019-04-07T12:59:55.209Z,17.60
2019-04-07T13:02:53.234Z,17.90
2019-04-07T13:05:39.205Z,18.00
2019-04-07T13:08:41.765Z,17.70
2019-04-07T13:11:45.679Z,18.00
2019-04-07T13:14:43.913Z,18.20
2019-04-07T13:17:44.371Z,18.20
2019-04-07T13:23:36.966Z,17.80
2019-04-07T13:26:37.418Z,17.70
2019-04-07T13:29:40.058Z,18.00
2019-04-07T13:35:42.148Z,18.00
2019-04-07T13:38:35.472Z,18.10
2019-04-07T13:44:21.738Z,18.00
2019-04-07T13:47:20.850Z,17.90
2019-04-07T13:50:20.222Z,17.80
2019-04-07T13:56:17.631Z,18.30
2019-04-07T14:02:30.210Z,18.40
2019-04-07T14:05:07.562Z,18.20
2019-04-07T14:07:53.931Z,18.10
2019-04-07T14:10:42.894Z,18.00
2019-04-07T14:13:44.708Z,18.00
2019-04-07T14:19:55.153Z,17.80
2019-04-07T14:22:42.882Z,17.80
2019-04-07T14:25:46.393Z,17.70
2019-04-07T14:31:34.718Z,17.60
2019-04-07T14:34:24.380Z,17.60
2019-04-07T14:37:25.349Z,17.50
2019-04-07T14:40:30.975Z,17.50
2019-04-07T14:43:26.326Z,17.20
2019-04-07T14:49:30.933Z,17.10
2019-04-07T14:52:17.651Z,17.10
2019-04-07T14:58:02.260Z,17.10
2019-04-07T15:01:04.733Z,17.00
2019-04-07T15:03:42.836Z,16.90
2019-04-07T15:06:23.886Z,16.90
2019-04-07T15:09:11.090Z,16.90
2019-04-07T15:12:01.568Z,16.80
2019-04-07T15:14:42.693Z,16.80
2019-04-07T15:17:23.125Z,16.80
2019-04-07T15:22:48.493Z,16.50
2019-04-07T15:25:29.719Z,16.50
2019-04-07T15:28:09.265Z,16.40
2019-04-07T15:30:50.167Z,16.30
2019-04-07T15:33:38.778Z,16.30
2019-04-07T15:36:19.557Z,16.20
2019-04-07T15:38:59.926Z,16.10
2019-04-07T15:41:42.493Z,16.00
2019-04-07T15:44:22.777Z,15.70
2019-04-07T15:47:02.952Z,15.60
2019-04-07T15:49:42.591Z,15.50
2019-04-07T15:52:22.891Z,15.40
2019-04-07T15:55:03.452Z,15.40
2019-04-07T15:57:43.942Z,15.40
2019-04-07T16:00:23.767Z,15.60
2019-04-07T16:03:04.315Z,15.80
2019-04-07T16:05:46.090Z,16.00
2019-04-07T16:08:28.817Z,16.00
2019-04-07T16:11:08.171Z,16.00
2019-04-07T16:13:48.249Z,16.00
2019-04-07T16:16:29.452Z,15.80
2019-04-07T16:19:15.581Z,15.70
2019-04-07T16:21:52.257Z,15.60
2019-04-07T16:24:32.722Z,15.40
2019-04-07T16:27:12.088Z,15.30
2019-04-07T16:29:56.906Z,15.30
2019-04-07T16:32:37.578Z,15.20
2019-04-07T16:35:18.333Z,15.10
2019-04-07T16:38:00.050Z,15.10
2019-04-07T16:40:42.098Z,15.00
2019-04-07T16:43:22.605Z,14.90
2019-04-07T16:46:02.501Z,14.80
2019-04-07T16:48:43.114Z,14.70
2019-04-07T16:51:26.439Z,14.60
2019-04-07T16:54:08.045Z,14.50
2019-04-07T16:56:50.477Z,14.50
2019-04-07T17:02:14.450Z,14.30
2019-04-07T17:04:54.700Z,14.10
2019-04-07T17:07:34.874Z,14.00
2019-04-07T17:10:14.993Z,13.90
2019-04-07T17:15:57.798Z,13.60
2019-04-07T17:18:37.079Z,13.50
2019-04-07T17:21:18.357Z,13.30
2019-04-07T17:23:59.171Z,13.30
2019-04-07T17:26:39.342Z,13.20
2019-04-07T17:29:21.413Z,13.00
2019-04-07T17:32:02.399Z,13.00
2019-04-07T17:34:43.597Z,12.90
2019-04-07T17:37:28.046Z,12.80
2019-04-07T17:40:14.362Z,12.60
2019-04-07T17:42:56.723Z,12.40
2019-04-07T17:49:18.158Z,12.30
2019-04-07T17:52:16.028Z,12.30
2019-04-07T17:55:15.331Z,12.30
2019-04-07T18:01:15.815Z,12.20
2019-04-07T18:07:29.966Z,11.90
2019-04-07T18:13:21.722Z,11.80
2019-04-07T18:16:15.999Z,11.80
2019-04-07T18:22:10.648Z,11.60
2019-04-07T18:24:59.589Z,11.60
2019-04-07T18:27:58.837Z,11.50
2019-04-07T18:30:54.728Z,11.50
2019-04-07T18:33:51.630Z,11.50
2019-04-07T18:40:02.421Z,11.00
2019-04-07T18:43:05.134Z,10.90
2019-04-07T18:46:05.996Z,10.90
2019-04-07T18:49:06.076Z,10.80
2019-04-07T18:52:05.718Z,10.60
2019-04-07T18:54:47.593Z,10.50
2019-04-07T18:57:42.610Z,10.40
2019-04-07T19:03:53.788Z,10.20
2019-04-07T19:06:56.185Z,10.10
2019-04-07T19:09:43.986Z,10.00
2019-04-07T19:12:43.593Z,9.90
2019-04-07T19:18:47.340Z,9.70
2019-04-07T19:21:38.782Z,9.60
2019-04-07T19:24:38.325Z,9.60
2019-04-07T19:27:38.600Z,9.50
2019-04-07T19:30:38.885Z,9.40
2019-04-07T19:33:24.507Z,9.20
2019-04-07T19:44:34.886Z,8.80
2019-04-07T19:47:04.959Z,8.70
2019-04-07T19:49:59.523Z,8.70
2019-04-07T19:52:38.418Z,8.60
2019-04-07T19:55:26.741Z,8.60
2019-04-07T20:00:54.298Z,8.60
2019-04-07T20:03:30.126Z,8.50
2019-04-07T20:09:12.290Z,8.40
2019-04-07T20:17:28.223Z,8.30
2019-04-07T20:26:10.858Z,8.00
2019-04-07T20:31:52.063Z,7.70
2019-04-07T20:37:18.150Z,7.70
2019-04-07T20:54:17.930Z,7.60
2019-04-07T21:00:03.591Z,7.50
2019-04-07T21:02:41.178Z,7.50
2019-04-07T21:11:17.279Z,7.40
2019-04-07T21:19:38.432Z,7.00
2019-04-07T21:25:15.609Z,6.60
2019-04-07T21:28:06.105Z,6.50
2019-04-07T21:36:21.737Z,6.30
2019-04-07T21:39:22.331Z,6.40
2019-04-07T21:47:38.601Z,6.40
2019-04-07T21:53:07.213Z,6.20
2019-04-07T21:56:04.820Z,6.00
2019-04-07T21:58:42.534Z,6.00
2019-04-07T22:01:37.693Z,6.00
2019-04-07T22:04:15.591Z,5.90
2019-04-07T22:07:06.630Z,6.00
2019-04-07T22:15:11.615Z,5.80
2019-04-07T22:20:27.864Z,5.80
2019-04-07T22:23:09.200Z,5.70
2019-04-07T22:25:46.164Z,5.70
2019-04-07T22:28:27.646Z,5.80
2019-04-07T22:31:05.613Z,5.70
2019-04-07T22:33:46.583Z,5.80
2019-04-07T22:36:27.323Z,5.80
2019-04-07T22:39:07.776Z,5.80
2019-04-07T22:41:48.376Z,5.90
2019-04-07T22:44:28.115Z,6.00
2019-04-07T22:47:09.422Z,6.00
2019-04-07T22:49:49.435Z,6.00
2019-04-07T22:52:30.063Z,5.90
2019-04-07T22:55:09.804Z,5.90
2019-04-07T22:57:49.765Z,6.00
2019-04-07T23:00:29.021Z,6.00
2019-04-07T23:03:09.919Z,6.00
2019-04-07T23:05:50.153Z,6.10
2019-04-07T23:08:30.367Z,6.10
2019-04-07T23:11:10.411Z,6.10
2019-04-07T23:13:51.306Z,6.00
2019-04-07T23:16:31.662Z,6.00
2019-04-07T23:19:11.713Z,6.10
2019-04-07T23:21:51.713Z,6.10
2019-04-07T23:24:31.713Z,6.00
2019-04-07T23:27:12.434Z,6.00
2019-04-07T23:29:52.849Z,6.00
2019-04-07T23:32:33.014Z,6.10
2019-04-07T23:35:13.146Z,6.10
2019-04-07T23:37:53.250Z,6.10
2019-04-07T23:40:34.289Z,6.10
2019-04-07T23:43:15.216Z,6.10
2019-04-07T23:45:55.944Z,6.10
2019-04-07T23:48:35.427Z,6.10
2019-04-07T23:51:16.405Z,6.20
2019-04-07T23:53:56.409Z,6.10
2019-04-07T23:56:36.332Z,6.10
2019-04-07T23:59:16.799Z,6.10
